Larochette, Luxembourg
Current Conditions -  °F | °C
As of 8:20 PM on Sunday 21 Dec 2014 (Local Time) from ELLX Reporting Station
Drizzle Drizzle  
Wind Chill: 33°   Ceiling: 1100
Heat Index: 41°   Visibility: 5mi
Dew Point: 39°   Wind: 15mph
Humidity: 93%   Direction: 240°WSW
Pressure: 30.39"   Gusts: NA
Location:  49.78°N, 6.22°E
Report Text: ELLX 211920Z 24013KT 8000 -DZ FEW009 BKN011 05/04 Q1029 NOSIG
Loading
Personal Weather Stations






























Interactive Weather Map New forecast layout! Learn more

10-Day Weather Forecast

Advertisements
Track Severe Weather on mobile